Time;durP1;ratioP1;P1;durP2;ratioP2;P2;SDS_P1;SDS_P2;PMS_P1;PMS_P2;Temp;Humidity;BMP_temperature;BMP_pressure;BME280_temperature;BME280_humidity;BME280_pressure;Samples;Min_cycle;Max_cycle;Signal;HPM_P1;HPM_P2
2023/10/05 00:02:08;;;;;;;6.23;5.10;;;12.50;91.20;;;;;;6227706;28;20203;-67
2023/10/05 00:05:08;;;;;;;7.03;5.37;;;12.40;91.00;;;;;;6205655;28;20192;-67
2023/10/05 00:08:10;;;;;;;7.03;5.03;;;12.40;91.20;;;;;;6199138;28;20295;-67
2023/10/05 00:11:22;;;;;;;6.83;5.03;;;12.30;90.90;;;;;;6193010;28;20215;-67
2023/10/05 00:14:26;;;;;;;5.90;5.23;;;12.30;90.90;;;;;;6207361;28;20186;-67
2023/10/05 00:17:29;;;;;;;5.20;4.70;;;12.30;90.80;;;;;;6209088;28;20190;-67
2023/10/05 00:20:38;;;;;;;9.33;5.20;;;12.30;91.10;;;;;;6204638;28;20203;-67
2023/10/05 00:23:41;;;;;;;7.07;5.23;;;12.30;92.10;;;;;;6200411;28;20243;-67
2023/10/05 00:26:48;;;;;;;7.80;5.20;;;12.30;91.20;;;;;;6185505;28;20219;-67
2023/10/05 00:29:57;;;;;;;7.40;4.93;;;12.30;91.30;;;;;;6184730;28;20192;-67
2023/10/05 00:32:59;;;;;;;7.03;4.73;;;12.20;90.60;;;;;;6215338;28;20192;-67
2023/10/05 00:36:00;;;;;;;8.50;4.70;;;12.20;90.70;;;;;;6184004;28;20188;-67
2023/10/05 00:39:02;;;;;;;7.43;4.87;;;12.10;90.80;;;;;;6198864;28;20178;-67
2023/10/05 00:45:05;;;;;;;7.13;4.77;;;12.20;90.40;;;;;;6221151;28;20202;-67
2023/10/05 00:48:13;;;;;;;5.20;4.20;;;12.10;90.70;;;;;;6183310;28;20265;-67
2023/10/05 00:51:23;;;;;;;9.10;4.93;;;12.10;90.30;;;;;;6203566;28;20231;-67
2023/10/05 00:54:30;;;;;;;7.17;4.50;;;12.00;90.00;;;;;;6196349;28;20188;-67
2023/10/05 00:57:33;;;;;;;6.07;4.70;;;12.00;90.40;;;;;;6193002;28;20187;-67
2023/10/05 01:00:43;;;;;;;7.20;4.67;;;12.00;90.30;;;;;;6188308;28;20196;-67
2023/10/05 01:07:17;;;;;;;6.67;4.73;;;11.90;90.20;;;;;;6214870;28;20212;-67
2023/10/05 01:10:27;;;;;;;7.17;4.73;;;11.90;90.70;;;;;;6201703;28;20195;-67
2023/10/05 01:13:32;;;;;;;5.03;4.03;;;11.90;90.90;;;;;;6189237;28;20204;-67
2023/10/05 01:16:32;;;;;;;7.07;4.57;;;11.90;90.50;;;;;;6206220;28;20204;-67
2023/10/05 01:19:38;;;;;;;6.50;4.50;;;11.90;90.80;;;;;;6183892;28;20191;-67
2023/10/05 01:22:39;;;;;;;5.73;4.00;;;11.90;90.60;;;;;;6200220;28;20231;-67
2023/10/05 01:25:42;;;;;;;6.60;4.50;;;;;;;;;;6235667;28;20191;-67
2023/10/05 01:28:44;;;;;;;5.93;4.40;;;;;;;;;;6205711;28;20326;-67
2023/10/05 01:31:46;;;;;;;6.60;5.00;;;;;;;;;;6235977;28;20187;-67
2023/10/05 01:34:50;;;;;;;5.60;4.40;;;;;;;;;;6208470;28;20278;-67
2023/10/05 01:37:51;;;;;;;6.77;4.43;;;;;;;;;;6212938;28;20206;-67
2023/10/05 01:40:56;;;;;;;6.50;4.70;;;;;;;;;;6200476;28;20192;-67
2023/10/05 01:44:00;;;;;;;5.90;4.83;;;;;;;;;;6207055;28;20198;-67
2023/10/05 01:47:01;;;;;;;5.93;4.13;;;;;;;;;;6226900;28;20218;-67
2023/10/05 01:50:03;;;;;;;10.10;4.53;;;;;;;;;;6230476;28;20277;-67
2023/10/05 01:53:08;;;;;;;7.97;4.40;;;;;;;;;;6223182;28;20409;-67
2023/10/05 01:56:20;;;;;;;5.70;4.37;;;;;;;;;;6219530;28;20254;-67
2023/10/05 01:59:24;;;;;;;5.97;4.43;;;;;;;;;;6231815;28;20187;-67
2023/10/05 02:02:26;;;;;;;4.60;4.20;;;;;;;;;;6195308;28;20258;-67
2023/10/05 02:05:30;;;;;;;6.33;4.73;;;;;;;;;;6210778;28;20223;-67
2023/10/05 02:08:35;;;;;;;7.23;4.97;;;;;;;;;;6212131;28;20225;-67
2023/10/05 02:11:36;;;;;;;4.97;4.10;;;;;;;;;;6216034;28;20190;-67
2023/10/05 02:14:41;;;;;;;5.37;4.30;;;;;;;;;;6212075;28;20198;-67
2023/10/05 02:17:46;;;;;;;6.57;4.67;;;;;;;;;;6216939;28;20193;-67
2023/10/05 02:20:51;;;;;;;5.23;4.07;;;;;;;;;;6213646;28;20214;-67
2023/10/05 02:23:57;;;;;;;8.00;4.53;;;;;;;;;;6208663;28;20301;-67
2023/10/05 02:30:08;;;;;;;7.40;5.10;;;;;;;;;;6223724;28;20233;-67
2023/10/05 02:33:09;;;;;;;6.07;4.07;;;;;;;;;;6201476;28;20188;-67
2023/10/05 02:36:20;;;;;;;8.47;4.23;;;;;;;;;;6198473;28;20277;-67
2023/10/05 02:39:22;;;;;;;5.23;4.07;;;;;;;;;;6206896;28;20187;-67
2023/10/05 02:42:24;;;;;;;8.93;4.50;;;;;;;;;;6219965;28;20231;-67
2023/10/05 02:45:26;;;;;;;7.07;4.60;;;;;;;;;;6206104;28;20282;-67
2023/10/05 02:48:30;;;;;;;5.37;4.07;;;;;;;;;;6207682;28;20207;-67
2023/10/05 02:51:31;;;;;;;7.60;4.10;;;;;;;;;;6204834;28;20192;-67
2023/10/05 02:54:32;;;;;;;5.53;4.53;;;;;;;;;;6196882;28;20187;-67
2023/10/05 02:57:33;;;;;;;7.03;4.50;;;;;;;;;;6205307;28;20190;-67
2023/10/05 03:00:35;;;;;;;11.97;5.03;;;;;;;;;;6197679;28;20195;-67
2023/10/05 03:03:36;;;;;;;5.40;4.20;;;;;;;;;;6201549;28;20195;-67
2023/10/05 03:06:39;;;;;;;7.33;4.43;;;;;;;;;;6196708;28;20206;-67
2023/10/05 03:09:42;;;;;;;6.03;4.33;;;;;;;;;;6217619;28;20274;-67
2023/10/05 03:12:43;;;;;;;5.90;4.47;;;;;;;;;;6207085;28;20180;-67
2023/10/05 03:15:44;;;;;;;5.77;4.33;;;;;;;;;;6198322;28;20194;-67
2023/10/05 03:18:48;;;;;;;6.53;4.30;;;;;;;;;;6202959;28;20191;-67
2023/10/05 03:22:04;;;;;;;4.87;4.27;;;;;;;;;;6204886;28;20253;-67
2023/10/05 03:25:05;;;;;;;8.80;4.43;;;;;;;;;;6199931;28;20240;-68
2023/10/05 03:28:06;;;;;;;7.83;5.03;;;;;;;;;;6196965;28;20362;-67
2023/10/05 03:31:14;;;;;;;5.97;4.20;;;;;;;;;;6228744;28;20187;-66
2023/10/05 03:34:15;;;;;;;6.37;4.33;;;;;;;;;;6229407;28;20257;-66
2023/10/05 03:37:17;;;;;;;7.07;4.57;;;;;;;;;;6199570;28;20194;-66
2023/10/05 03:40:25;;;;;;;6.93;4.33;;;;;;;;;;6194519;28;20191;-66
2023/10/05 03:43:27;;;;;;;6.67;4.30;;;;;;;;;;6199074;28;20290;-66
2023/10/05 03:46:28;;;;;;;5.50;4.50;;;;;;;;;;6197666;28;20238;-67
2023/10/05 03:49:29;;;;;;;7.80;4.20;;;;;;;;;;6225100;28;20191;-67
2023/10/05 03:52:32;;;;;;;6.50;4.13;;;;;;;;;;6204138;28;20196;-67
2023/10/05 03:55:33;;;;;;;6.10;5.00;;;;;;;;;;6206429;28;20191;-69
2023/10/05 03:58:36;;;;;;;7.00;4.40;;;;;;;;;;6208071;28;20194;-68
2023/10/05 04:01:37;;;;;;;5.63;3.87;;;;;;;;;;6200347;28;20235;-69
2023/10/05 04:04:42;;;;;;;5.50;4.67;;;;;;;;;;6205825;28;20214;-67
2023/10/05 04:07:43;;;;;;;5.40;3.80;;;;;;;;;;6207700;28;20219;-67
2023/10/05 04:10:49;;;;;;;7.53;4.47;;;;;;;;;;6205001;28;20191;-67
2023/10/05 04:13:51;;;;;;;7.10;4.33;;;;;;;;;;6209238;28;20198;-67
2023/10/05 04:16:52;;;;;;;6.40;4.53;;;;;;;;;;6198972;28;20239;-68
2023/10/05 04:19:54;;;;;;;6.07;4.43;;;;;;;;;;6198447;28;20287;-69
2023/10/05 04:22:55;;;;;;;4.73;3.80;;;;;;;;;;6203408;28;20238;-68
2023/10/05 04:25:57;;;;;;;6.40;4.13;;;;;;;;;;6205904;28;20183;-67
2023/10/05 04:28:58;;;;;;;4.90;4.40;;;;;;;;;;6205778;28;20297;-67
2023/10/05 04:31:59;;;;;;;5.63;4.00;;;;;;;;;;6211391;28;20197;-70
2023/10/05 04:35:01;;;;;;;7.63;4.07;;;;;;;;;;6209415;28;20202;-68
2023/10/05 04:38:02;;;;;;;7.13;4.43;;;;;;;;;;6216662;28;20214;-65
2023/10/05 04:41:04;;;;;;;7.40;4.27;;;;;;;;;;6209745;28;20202;-68
2023/10/05 04:44:07;;;;;;;10.17;4.70;;;;;;;;;;6220541;28;20195;-68
2023/10/05 04:47:11;;;;;;;7.00;4.20;;;;;;;;;;6228081;28;20237;-68
2023/10/05 04:50:17;;;;;;;5.13;3.80;;;;;;;;;;6209053;28;20186;-68
2023/10/05 04:53:20;;;;;;;6.90;4.50;;;;;;;;;;6226266;28;20178;-68
2023/10/05 05:00:48;;;;;;;10.27;4.07;;;;;;;;;;6138007;28;20313;-68
2023/10/05 05:06:27;;;;;;;6.10;3.83;;;;;;;;;;6219595;28;20225;-68
2023/10/05 05:09:39;;;;;;;6.40;4.10;;;;;;;;;;6213015;28;20190;-68
2023/10/05 05:12:40;;;;;;;7.07;4.30;;;;;;;;;;6212397;28;20191;-68
2023/10/05 05:15:42;;;;;;;6.30;4.30;;;;;;;;;;6205023;28;20279;-68
2023/10/05 05:18:44;;;;;;;9.70;4.70;;;;;;;;;;6211087;28;20281;-68
2023/10/05 05:21:45;;;;;;;6.80;4.20;;;;;;;;;;6212501;28;20194;-68
2023/10/05 05:24:46;;;;;;;7.07;4.87;;;;;;;;;;6211430;28;20246;-68
2023/10/05 05:27:48;;;;;;;7.27;5.17;;;;;;;;;;6205938;28;20221;-68
2023/10/05 05:30:49;;;;;;;7.03;5.33;;;;;;;;;;6210153;28;20194;-68
2023/10/05 05:33:50;;;;;;;9.57;4.47;;;;;;;;;;6217531;28;20217;-68
2023/10/05 05:36:54;;;;;;;6.73;4.33;;;;;;;;;;6205165;28;20228;-68
2023/10/05 05:39:55;;;;;;;7.20;4.40;;;;;;;;;;6216918;28;20191;-68
2023/10/05 05:42:57;;;;;;;6.13;4.63;;;;;;;;;;6223432;28;20202;-68
2023/10/05 05:45:58;;;;;;;5.47;4.33;;;;;;;;;;6200379;28;20195;-68
2023/10/05 05:48:59;;;;;;;6.90;4.17;;;;;;;;;;6216039;28;20276;-68
2023/10/05 05:52:00;;;;;;;6.20;4.57;;;;;;;;;;6228184;28;20194;-68
2023/10/05 05:55:10;;;;;;;8.40;4.67;;;;;;;;;;6206219;28;20195;-68
2023/10/05 05:58:14;;;;;;;8.43;5.50;;;;;;;;;;6199752;28;20211;-68
2023/10/05 06:01:15;;;;;;;7.57;4.63;;;;;;;;;;6217114;28;20201;-68
2023/10/05 06:04:19;;;;;;;7.20;4.60;;;;;;;;;;6209120;28;20210;-68
2023/10/05 06:07:20;;;;;;;6.87;4.53;;;;;;;;;;6221359;28;20234;-68
2023/10/05 06:10:28;;;;;;;7.67;5.20;;;;;;;;;;6218529;28;20194;-68
2023/10/05 06:13:29;;;;;;;9.87;4.80;;;;;;;;;;6209237;28;20191;-68
2023/10/05 06:16:33;;;;;;;19.60;8.03;;;;;;;;;;6220372;28;20249;-68
2023/10/05 06:19:37;;;;;;;19.50;8.00;;;;;;;;;;6221470;28;20198;-68
2023/10/05 06:22:38;;;;;;;16.47;7.13;;;;;;;;;;6207651;28;20474;-68
2023/10/05 06:25:39;;;;;;;20.07;8.00;;;;;;;;;;6212440;28;20186;-68
2023/10/05 06:28:40;;;;;;;19.63;8.37;;;;;;;;;;6213181;28;20212;-68
2023/10/05 06:31:43;;;;;;;27.37;11.70;;;;;;;;;;6206623;28;20253;-68
2023/10/05 06:34:44;;;;;;;24.43;10.43;;;;;;;;;;6206716;28;20188;-68
2023/10/05 06:37:45;;;;;;;25.57;11.23;;;;;;;;;;6222753;28;20190;-68
2023/10/05 06:40:46;;;;;;;26.30;11.47;;;;;;;;;;6215592;28;20244;-68
2023/10/05 06:43:48;;;;;;;22.27;9.80;;;;;;;;;;6206954;28;20199;-68
2023/10/05 06:46:50;;;;;;;45.23;15.53;;;;;;;;;;6211962;28;20302;-68
2023/10/05 06:49:51;;;;;;;35.90;12.60;;;;;;;;;;6213247;28;20191;-68
2023/10/05 06:52:52;;;;;;;32.07;11.70;;;;;;;;;;6230703;28;20186;-68
2023/10/05 06:55:56;;;;;;;24.07;10.63;;;;;;;;;;6208027;28;20276;-68
2023/10/05 06:58:57;;;;;;;14.60;7.60;;;;;;;;;;6209779;28;20206;-69
2023/10/05 07:01:58;;;;;;;13.27;7.07;;;;;;;;;;6206725;28;20219;-69
2023/10/05 07:04:59;;;;;;;14.03;7.07;;;;;;;;;;6216883;28;20205;-69
2023/10/05 07:08:00;;;;;;;9.20;5.53;;;;;;;;;;6220825;28;20276;-69
2023/10/05 07:11:01;;;;;;;8.70;5.80;;;;;;;;;;6206655;28;20187;-69
2023/10/05 07:14:02;;;;;;;8.87;5.27;;;;;;;;;;6217397;28;20205;-70
2023/10/05 07:17:04;;;;;;;8.47;5.93;;;;;;;;;;6211779;28;20194;-69
2023/10/05 07:20:11;;;;;;;10.00;6.47;;;;;;;;;;6201017;28;20195;-69
2023/10/05 07:23:12;;;;;;;9.03;5.13;;;;;;;;;;6224327;28;20260;-69
2023/10/05 07:26:13;;;;;;;9.20;5.63;;;;;;;;;;6205731;28;20201;-69
2023/10/05 07:29:14;;;;;;;8.33;5.93;;;;;;;;;;6229603;28;20187;-69
2023/10/05 07:32:16;;;;;;;8.37;5.50;;;;;;;;;;6220859;28;20240;-69
2023/10/05 07:35:17;;;;;;;10.13;6.17;;;;;;;;;;6217313;28;20229;-69
2023/10/05 07:38:18;;;;;;;8.37;5.07;;;;;;;;;;6207407;28;20239;-69
2023/10/05 07:41:19;;;;;;;8.30;5.80;;;;;;;;;;6205472;28;20195;-69
2023/10/05 07:44:20;;;;;;;8.07;6.10;;;;;;;;;;6205237;28;20211;-69
2023/10/05 07:47:21;;;;;;;9.57;5.43;;;;;;;;;;6213373;28;20269;-69
2023/10/05 07:50:23;;;;;;;7.30;5.20;;;;;;;;;;6208174;28;20187;-69
2023/10/05 07:53:25;;;;;;;8.17;5.83;;;;;;;;;;6207823;28;20191;-69
2023/10/05 07:56:26;;;;;;;9.13;6.23;;;;;;;;;;6208318;28;20185;-69
2023/10/05 07:59:28;;;;;;;8.47;6.00;;;;;;;;;;6214363;28;20196;-70
2023/10/05 08:02:30;;;;;;;7.87;5.63;;;;;;;;;;6198460;28;20191;-70
2023/10/05 08:05:31;;;;;;;8.97;5.63;;;;;;;;;;6216524;28;20194;-69
2023/10/05 08:08:34;;;;;;;8.20;5.30;;;;;;;;;;6203936;28;20226;-69
2023/10/05 08:11:35;;;;;;;8.30;5.60;;;;;;;;;;6211542;28;20186;-69
2023/10/05 08:14:36;;;;;;;6.70;4.93;;;;;;;;;;6211555;28;20412;-69
2023/10/05 08:17:41;;;;;;;7.30;5.67;;;;;;;;;;6213632;28;20222;-69
2023/10/05 08:20:42;;;;;;;7.20;5.03;;;;;;;;;;6208343;28;20191;-69
2023/10/05 08:23:43;;;;;;;9.27;5.70;;;;;;;;;;6194755;28;20303;-69
2023/10/05 08:26:45;;;;;;;8.67;5.63;;;;;;;;;;6212505;28;20227;-69
2023/10/05 08:29:47;;;;;;;8.20;5.80;;;;;;;;;;6207860;28;20190;-69
2023/10/05 08:32:57;;;;;;;7.70;5.13;;;;;;;;;;6227706;28;20198;-69
2023/10/05 08:35:58;;;;;;;9.90;5.77;;;;;;;;;;6215565;28;20191;-69
2023/10/05 08:39:00;;;;;;;8.57;6.57;;;;;;;;;;6217452;28;20195;-69
2023/10/05 08:42:07;;;;;;;7.53;6.43;;;;;;;;;;6212630;28;20229;-69
2023/10/05 08:45:12;;;;;;;9.80;7.40;;;;;;;;;;6221195;28;20214;-69
2023/10/05 08:48:34;;;;;;;10.43;7.60;;;;;;;;;;6211331;28;20223;-69
2023/10/05 08:51:35;;;;;;;9.13;7.00;;;;;;;;;;6227104;28;20274;-69
2023/10/05 08:54:37;;;;;;;9.10;7.10;;;;;;;;;;6226731;28;20191;-69
2023/10/05 08:57:39;;;;;;;11.93;7.40;;;;;;;;;;6201235;28;20194;-69
2023/10/05 09:00:40;;;;;;;9.53;6.77;;;;;;;;;;6205753;28;20199;-69
2023/10/05 09:03:42;;;;;;;14.27;7.80;;;;;;;;;;6214134;28;20198;-69
2023/10/05 09:06:49;;;;;;;11.17;7.70;;;;;;;;;;6211994;28;20218;-69
2023/10/05 09:09:56;;;;;;;9.20;7.60;;;;;;;;;;6224570;28;20194;-69
2023/10/05 09:12:58;;;;;;;12.80;8.33;;;;;;;;;;6198269;28;20291;-69
2023/10/05 09:15:59;;;;;;;11.43;7.37;;;;;;;;;;6219264;28;20195;-69
2023/10/05 09:19:01;;;;;;;10.33;9.23;;;;;;;;;;6229469;28;20226;-69
2023/10/05 09:25:15;;;;;;;11.13;8.33;;;;;;;;;;6213392;28;20285;-69
2023/10/05 09:28:35;;;;;;;11.00;8.73;;;;;;;;;;6218145;28;20212;-69
2023/10/05 09:31:36;;;;;;;11.70;9.40;;;;;;;;;;6235808;28;20200;-69
2023/10/05 09:34:43;;;;;;;11.50;9.37;;;;;;;;;;6203271;28;20208;-69
2023/10/05 09:37:46;;;;;;;10.57;8.77;;;;;;;;;;6221263;28;20188;-69
2023/10/05 09:40:47;;;;;;;11.67;9.17;;;;;;;;;;6207693;28;20240;-69
2023/10/05 09:43:52;;;;;;;12.77;9.73;;;;;;;;;;6207059;28;20188;-69
2023/10/05 09:46:54;;;;;;;12.60;9.10;;;;;;;;;;6227920;28;20231;-69
2023/10/05 09:49:56;;;;;;;10.17;8.73;;;;;;;;;;6196859;28;20198;-69
2023/10/05 09:52:59;;;;;;;10.37;8.37;;;;;;;;;;6207145;28;20191;-69
2023/10/05 09:56:01;;;;;;;9.17;7.23;;;;;;;;;;6209384;28;20214;-69
2023/10/05 09:59:02;;;;;;;6.80;6.10;;;;;;;;;;6224215;28;20195;-69
2023/10/05 10:02:04;;;;;;;7.00;6.30;;;;;;;;;;6221479;28;20227;-69
2023/10/05 10:05:25;;;;;;;10.23;8.17;;;;;;;;;;6201217;28;20226;-69
2023/10/05 10:08:29;;;;;;;8.50;7.03;;;;;;;;;;6204795;28;20239;-69
2023/10/05 10:11:32;;;;;;;10.63;7.73;;;;;;;;;;6219393;28;20282;-69
2023/10/05 10:14:33;;;;;;;8.30;7.40;;;;;;;;;;6205134;28;20312;-69
2023/10/05 10:17:34;;;;;;;8.53;7.43;;;;;;;;;;6201735;28;20198;-69
2023/10/05 10:20:35;;;;;;;8.80;7.73;;;;;;;;;;6202149;28;20188;-69
2023/10/05 10:23:36;;;;;;;11.47;8.80;;;;;;;;;;6187710;28;20262;-69
2023/10/05 10:27:00;;;;;;;10.23;7.73;;;;;;;;;;6191962;28;20204;-69
2023/10/05 10:30:02;;;;;;;10.97;8.87;;;;;;;;;;6214425;28;20188;-70
2023/10/05 10:33:35;;;;;;;9.73;7.40;;;;;;;;;;6234533;28;20195;-69
2023/10/05 10:36:46;;;;;;;11.40;8.27;;;;;;;;;;6223173;28;20216;-68
2023/10/05 10:39:49;;;;;;;13.90;7.97;;;;;;;;;;6224874;28;20226;-68
2023/10/05 10:46:14;;;;;;;9.17;7.07;;;;;;;;;;6203070;28;20287;-67
2023/10/05 10:49:19;;;;;;;9.77;7.53;;;;;;;;;;6189448;28;20213;-70
2023/10/05 10:52:21;;;;;;;10.73;7.43;;;;;;;;;;6204594;28;20198;-71
2023/10/05 10:55:26;;;;;;;10.43;7.70;;;;;;;;;;6205121;28;20188;-70
2023/10/05 10:58:30;;;;;;;9.10;6.83;;;;;;;;;;6217456;28;20199;-72
2023/10/05 11:01:41;;;;;;;9.00;6.83;;;;;;;;;;6208605;28;20258;-71
2023/10/05 11:04:43;;;;;;;9.63;7.30;;;;;;;;;;6195576;28;20193;-69
2023/10/05 11:07:44;;;;;;;7.73;6.50;;;;;;;;;;6217147;28;20246;-68
2023/10/05 11:10:46;;;;;;;8.00;6.53;;;;;;;;;;6208218;28;20187;-69
2023/10/05 11:14:02;;;;;;;7.03;6.17;;;;;;;;;;6195726;28;20202;-68
2023/10/05 11:17:11;;;;;;;7.70;6.20;;;;;;;;;;6201004;28;20271;-69
2023/10/05 11:20:25;;;;;;;9.67;5.70;;;;;;;;;;6199201;28;20215;-70
2023/10/05 11:23:26;;;;;;;7.00;5.97;;;;;;;;;;6206575;28;20248;-68
2023/10/05 11:26:33;;;;;;;8.80;5.47;;;;;;;;;;6198813;28;20231;-69
2023/10/05 11:29:48;;;;;;;6.80;5.77;;;;;;;;;;6202695;28;20188;-69
2023/10/05 11:32:54;;;;;;;8.00;5.50;;;;;;;;;;6213471;28;20184;-71
2023/10/05 11:35:56;;;;;;;6.60;5.00;;;;;;;;;;6200201;28;20237;-70
2023/10/05 11:39:20;;;;;;;6.13;5.53;;;;;;;;;;6218438;28;20191;-69
2023/10/05 11:42:24;;;;;;;7.67;5.30;;;;;;;;;;6206525;28;20275;-72
2023/10/05 11:45:25;;;;;;;9.20;5.67;;;;;;;;;;6213595;28;20290;-71
2023/10/05 11:48:42;;;;;;;7.43;5.13;;;;;;;;;;6203498;28;20219;-71
2023/10/05 11:51:44;;;;;;;8.30;5.47;;;;;;;;;;6221345;28;20180;-71
2023/10/05 11:54:46;;;;;;;7.10;5.07;;;;;;;;;;6200299;28;20183;-71
2023/10/05 11:57:47;;;;;;;6.63;5.13;;;;;;;;;;6204709;28;20195;-71
2023/10/05 12:00:48;;;;;;;7.60;4.87;;;;;;;;;;6218366;28;20194;-71
2023/10/05 12:03:49;;;;;;;6.57;4.97;;;;;;;;;;6200468;28;20286;-71
2023/10/05 12:06:58;;;;;;;6.17;5.27;;;;;;;;;;6219534;28;20249;-71
2023/10/05 12:09:59;;;;;;;5.97;4.47;;;;;;;;;;6221726;28;20187;-72
2023/10/05 12:13:02;;;;;;;5.70;5.10;;;;;;;;;;6203315;28;20189;-71
2023/10/05 12:16:11;;;;;;;5.87;4.87;;;;;;;;;;6202289;28;20187;-71
2023/10/05 12:19:16;;;;;;;5.27;3.97;;;;;;;;;;6211916;28;20264;-71
2023/10/05 12:22:17;;;;;;;5.40;4.30;;;;;;;;;;6209660;28;20197;-71
2023/10/05 12:25:24;;;;;;;5.93;4.33;;;;;;;;;;6220782;28;20193;-71
2023/10/05 12:28:25;;;;;;;6.20;4.73;;;;;;;;;;6196303;28;20219;-71
2023/10/05 12:31:26;;;;;;;5.80;4.37;;;11.90;89.90;;;;;;6229503;28;20182;-71
2023/10/05 12:34:27;;;;;;;5.00;3.90;;;20.90;62.90;;;;;;6203885;28;20186;-69
2023/10/05 12:37:29;;;;;;;4.30;3.90;;;21.10;61.60;;;;;;6191690;28;20216;-69
2023/10/05 12:40:33;;;;;;;4.83;4.10;;;21.30;60.70;;;;;;6183581;28;20232;-69
2023/10/05 12:43:34;;;;;;;6.27;4.00;;;21.40;60.40;;;;;;6186692;28;20195;-68
2023/10/05 12:46:39;;;;;;;4.17;3.77;;;21.50;60.20;;;;;;6217199;28;20191;-69
2023/10/05 12:49:40;;;;;;;6.93;4.30;;;21.70;58.60;;;;;;6215704;28;20175;-68
2023/10/05 12:52:41;;;;;;;4.40;3.73;;;21.70;57.60;;;;;;6199898;28;20183;-68
2023/10/05 12:55:42;;;;;;;5.30;3.80;;;21.70;58.60;;;;;;6186175;28;20187;-68
2023/10/05 12:58:43;;;;;;;7.70;4.63;;;21.90;55.60;;;;;;6227655;28;20195;-68
2023/10/05 13:01:44;;;;;;;5.23;3.77;;;21.90;57.40;;;;;;6186555;28;20209;-68
2023/10/05 13:04:45;;;;;;;5.77;3.87;;;21.70;54.90;;;;;;6214577;28;20250;-70
2023/10/05 13:07:46;;;;;;;4.20;3.67;;;21.70;56.10;;;;;;6191686;28;20206;-69
2023/10/05 13:10:48;;;;;;;5.83;3.87;;;21.80;56.30;;;;;;6197316;28;20232;-68
2023/10/05 13:13:48;;;;;;;4.67;3.63;;;21.90;55.70;;;;;;6201411;28;20194;-68
2023/10/05 13:16:51;;;;;;;4.83;4.03;;;22.00;56.20;;;;;;6196831;28;20283;-68
2023/10/05 13:19:52;;;;;;;6.97;4.17;;;;;;;;;;6200680;28;20240;-68
2023/10/05 13:22:53;;;;;;;9.63;3.77;;;;;;;;;;6210434;28;20343;-67
2023/10/05 13:25:55;;;;;;;6.03;3.87;;;;;;;;;;6230179;28;20218;-68
2023/10/05 13:29:03;;;;;;;3.80;3.20;;;;;;;;;;6210827;28;20236;-68
2023/10/05 13:32:04;;;;;;;5.13;3.73;;;26.30;49.70;;;;;;6220304;28;20188;-68
2023/10/05 13:35:10;;;;;;;6.73;3.83;;;26.70;46.60;;;;;;6187107;28;20182;-68
2023/10/05 13:38:17;;;;;;;5.60;3.77;;;26.80;47.00;;;;;;6191175;28;20191;-68
2023/10/05 13:41:18;;;;;;;6.00;3.80;;;26.20;47.20;;;;;;6201102;28;20206;-67
2023/10/05 13:44:19;;;;;;;7.97;3.70;;;25.80;47.00;;;;;;6187021;28;20210;-68
2023/10/05 13:47:20;;;;;;;6.10;4.40;;;25.50;48.40;;;;;;6199799;28;20215;-68
2023/10/05 13:50:23;;;;;;;5.70;3.87;;;24.90;48.80;;;;;;6193399;28;20249;-69
2023/10/05 13:53:24;;;;;;;6.10;4.07;;;24.50;49.80;;;;;;6191542;28;20196;-69
2023/10/05 13:56:30;;;;;;;5.70;3.57;;;24.20;51.80;;;;;;6210865;28;20239;-68
2023/10/05 13:59:31;;;;;;;4.73;3.70;;;;;;;;;;6232444;28;20272;-69
2023/10/05 14:02:33;;;;;;;4.87;3.90;;;;;;;;;;6208744;28;20197;-68
2023/10/05 14:05:34;;;;;;;6.00;3.80;;;24.40;51.00;;;;;;6231684;28;20202;-68
2023/10/05 14:08:35;;;;;;;4.00;3.53;;;;;;;;;;6206290;28;20239;-67
2023/10/05 14:11:39;;;;;;;7.63;3.47;;;;;;;;;;6200008;28;20193;-68
2023/10/05 14:14:40;;;;;;;4.77;3.43;;;;;;;;;;6214975;28;20205;-67
2023/10/05 14:17:41;;;;;;;7.47;3.90;;;;;;;;;;6210746;28;21226;-67
2023/10/05 14:20:51;;;;;;;4.27;3.67;;;;;;;;;;6225924;28;20202;-68
2023/10/05 14:23:52;;;;;;;3.93;3.23;;;;;;;;;;6225646;28;20235;-68
2023/10/05 14:26:57;;;;;;;8.00;3.63;;;;;;;;;;6207794;28;20233;-69
2023/10/05 14:29:58;;;;;;;5.90;3.60;;;;;;;;;;6232496;28;20195;-68
2023/10/05 14:32:59;;;;;;;6.30;3.50;;;;;;;;;;6214907;28;20182;-68
2023/10/05 14:36:00;;;;;;;4.43;4.03;;;;;;;;;;6225699;28;20226;-68
2023/10/05 14:39:22;;;;;;;5.90;3.60;;;;;;;;;;6198918;28;20203;-68
2023/10/05 14:42:23;;;;;;;5.17;3.83;;;;;;;;;;6231128;28;20187;-68
2023/10/05 14:45:26;;;;;;;5.10;3.27;;;;;;;;;;6212109;28;20197;-68
2023/10/05 14:48:31;;;;;;;3.77;3.23;;;;;;;;;;6218015;28;20302;-68
2023/10/05 14:51:32;;;;;;;3.40;2.80;;;;;;;;;;6214030;28;20183;-69
2023/10/05 14:54:34;;;;;;;3.87;3.47;;;21.50;58.40;;;;;;6207144;28;20286;-68
2023/10/05 14:57:37;;;;;;;3.60;3.20;;;;;;;;;;6188554;28;20195;-69
2023/10/05 15:00:39;;;;;;;7.40;3.73;;;;;;;;;;6232328;28;20280;-69
2023/10/05 15:03:41;;;;;;;5.00;3.37;;;21.10;59.70;;;;;;6226109;28;20188;-69
2023/10/05 15:06:42;;;;;;;4.83;3.20;;;20.50;63.30;;;;;;6206040;28;20214;-68
2023/10/05 15:09:43;;;;;;;4.20;3.80;;;;;;;;;;6193775;28;20191;-68
2023/10/05 15:12:44;;;;;;;3.93;3.50;;;;;;;;;;6212659;28;20273;-68
2023/10/05 15:15:46;;;;;;;3.90;3.40;;;;;;;;;;6208868;28;20189;-68
2023/10/05 15:18:46;;;;;;;4.87;4.00;;;20.50;64.60;;;;;;6212958;28;20195;-68
2023/10/05 15:21:48;;;;;;;5.90;3.90;;;19.90;64.30;;;;;;6199884;28;20221;-69
2023/10/05 15:24:49;;;;;;;4.17;3.10;;;19.80;65.60;;;;;;6199341;28;20274;-69
2023/10/05 15:27:50;;;;;;;3.70;3.30;;;19.80;67.50;;;;;;6201822;28;20241;-68
2023/10/05 15:30:51;;;;;;;5.13;3.57;;;19.80;68.80;;;;;;6189612;28;20192;-68
2023/10/05 15:33:52;;;;;;;3.67;3.33;;;19.90;69.00;;;;;;6200169;28;20197;-69
2023/10/05 15:36:54;;;;;;;5.50;4.27;;;20.00;68.50;;;;;;6188993;28;20182;-68
2023/10/05 15:39:55;;;;;;;6.33;3.87;;;19.90;69.20;;;;;;6203933;28;20262;-69
2023/10/05 15:42:59;;;;;;;6.63;3.70;;;19.70;69.50;;;;;;6189341;28;20191;-70
2023/10/05 15:46:00;;;;;;;4.97;3.57;;;;;;;;;;6207832;28;20190;-69
2023/10/05 15:49:01;;;;;;;5.07;4.20;;;;;;;;;;6204692;28;20304;-69
2023/10/05 15:52:03;;;;;;;4.87;4.30;;;;;;;;;;6206763;28;20191;-71
2023/10/05 15:55:07;;;;;;;5.07;3.70;;;;;;;;;;6204024;28;20197;-71
2023/10/05 15:58:09;;;;;;;6.33;3.83;;;;;;;;;;6217963;28;20275;-70
2023/10/05 16:01:11;;;;;;;5.57;3.63;;;;;;;;;;6218317;28;20194;-70
2023/10/05 16:04:12;;;;;;;4.23;3.80;;;;;;;;;;6206286;28;20190;-70
2023/10/05 16:07:16;;;;;;;5.00;4.07;;;;;;;;;;6221760;28;20205;-70
2023/10/05 16:10:17;;;;;;;4.80;3.97;;;;;;;;;;6206931;28;20220;-71
2023/10/05 16:13:18;;;;;;;4.33;3.83;;;;;;;;;;6209833;28;20194;-71
2023/10/05 16:16:19;;;;;;;3.63;3.33;;;;;;;;;;6228632;28;20195;-71
2023/10/05 16:19:21;;;;;;;6.17;4.33;;;;;;;;;;6199939;28;20187;-71
2023/10/05 16:22:22;;;;;;;4.53;3.57;;;;;;;;;;6226698;28;20225;-72
2023/10/05 16:25:26;;;;;;;5.03;3.87;;;;;;;;;;6212305;28;20196;-72
2023/10/05 16:28:27;;;;;;;5.37;4.10;;;;;;;;;;6211344;28;20221;-72
2023/10/05 16:31:28;;;;;;;4.60;4.10;;;;;;;;;;6208483;28;20191;-69
2023/10/05 16:34:33;;;;;;;7.93;3.87;;;;;;;;;;6201391;28;20274;-69
2023/10/05 16:37:35;;;;;;;5.93;3.87;;;;;;;;;;6204869;28;20183;-69
2023/10/05 16:40:36;;;;;;;6.83;4.40;;;;;;;;;;6227595;28;20194;-69
2023/10/05 16:43:37;;;;;;;6.83;3.80;;;;;;;;;;6207699;28;20201;-69
2023/10/05 16:46:38;;;;;;;7.00;4.00;;;;;;;;;;6212075;28;20223;-69
2023/10/05 16:49:39;;;;;;;5.20;4.10;;;;;;;;;;6205397;28;20197;-66
2023/10/05 16:52:44;;;;;;;6.03;4.00;;;;;;;;;;6210541;28;20289;-69
2023/10/05 16:55:47;;;;;;;4.20;3.80;;;;;;;;;;6217079;28;20181;-70
2023/10/05 16:58:49;;;;;;;5.17;3.93;;;;;;;;;;6202680;28;20187;-71
2023/10/05 17:01:50;;;;;;;4.47;4.07;;;;;;;;;;6203528;28;20191;-71
2023/10/05 17:04:51;;;;;;;4.80;3.90;;;;;;;;;;6208777;28;20194;-70
2023/10/05 17:07:58;;;;;;;4.70;4.13;;;;;;;;;;6212549;28;20220;-69
2023/10/05 17:10:59;;;;;;;5.70;4.20;;;;;;;;;;6217868;28;20188;-70
2023/10/05 17:14:00;;;;;;;5.20;3.97;;;;;;;;;;6199867;28;20278;-69
2023/10/05 17:17:02;;;;;;;4.60;4.07;;;;;;;;;;6204587;28;20262;-69
2023/10/05 17:20:04;;;;;;;5.57;4.00;;;;;;;;;;6201407;28;20260;-65
2023/10/05 17:23:05;;;;;;;8.20;4.03;;;;;;;;;;6213295;28;20254;-71
2023/10/05 17:26:06;;;;;;;4.63;3.60;;;;;;;;;;6201651;28;20199;-72
2023/10/05 17:29:11;;;;;;;8.97;4.30;;;;;;;;;;6211701;28;20219;-70
2023/10/05 17:32:12;;;;;;;7.20;4.17;;;;;;;;;;6195329;28;20187;-72
2023/10/05 17:35:21;;;;;;;4.50;4.03;;;;;;;;;;6195449;28;20195;-70
2023/10/05 17:38:24;;;;;;;5.07;4.37;;;;;;;;;;6202932;28;20200;-71
2023/10/05 17:41:25;;;;;;;6.37;3.93;;;;;;;;;;6208108;28;20191;-70
2023/10/05 17:44:28;;;;;;;7.20;4.40;;;;;;;;;;6225437;28;20202;-70
2023/10/05 17:47:29;;;;;;;4.23;3.83;;;;;;;;;;6212437;28;20270;-69
2023/10/05 17:50:33;;;;;;;6.83;4.40;;;;;;;;;;6195742;28;20180;-69
2023/10/05 17:53:35;;;;;;;7.33;4.73;;;;;;;;;;6206813;28;20187;-69
2023/10/05 17:56:36;;;;;;;8.40;4.20;;;;;;;;;;6211847;28;20325;-69
2023/10/05 17:59:39;;;;;;;6.63;4.83;;;;;;;;;;6195677;28;20191;-69
2023/10/05 18:02:42;;;;;;;6.47;4.17;;;;;;;;;;6220773;28;20193;-71
2023/10/05 18:05:44;;;;;;;5.20;4.70;;;;;;;;;;6208616;28;20187;-70
2023/10/05 18:08:46;;;;;;;5.07;4.53;;;;;;;;;;6208558;28;20203;-70
2023/10/05 18:11:48;;;;;;;5.33;4.53;;;;;;;;;;6233547;28;20261;-71